Stanton, CA

5:39 PM PDT on September 02, 2014 (GMT -0700)
Dale/Chapman | Change Station
CLOSE
Current Station
Personal Weather Station
Location: Stanton, CA
Elevation: 69 ft
Nearby Weather Stations

Elev 69 ft 33.79 °N, 117.98 °W | Updated 8 minutes ago

Partly Cloudy
Partly Cloudy
79.1 °F
Feels Like 81 °F
N
2.0
Wind Variable Wind from SW
Gusts 2.0 mph

Today
High -- | Low -- °F
--% Chance of Precip.
Yesterday
High -- | Low -- °F
Precip. -- in
6:26 AM 7:16 PM
First Quarter, 56% visible
Pressure 29.78 in
Visibility 10.0 miles
Clouds Few 1300 ft
Heat Index 81 °F
Dew Point 67 °F
Humidity 66%
Rainfall 0.00 in
Snow Depth Not available.
UV 2 out of 12
Pollen 7.00 out of 12
Ozone Good
PM2.5 Moderate
Flu Activity Not available.
METAR KSLI 022358Z 19009KT 10SM FEW013 25/19 A2977 RMK AO2A SLP084 T02510186 10270 20251 57014

More Conditions Fewer Conditions

Pressure 29.78 in
Visibility 10.0 miles
Clouds Few 1300 ft
Heat Index 81 °F
Dew Point 67 °F
Humidity 66%
Rainfall 0.00 in
Snow Depth Not available.
UV 2 out of 12
Pollen 7.00 out of 12
Ozone Good
PM2.5 Moderate
Flu Activity Not available.
METAR KSLI 022358Z 19009KT 10SM FEW013 25/19 A2977 RMK AO2A SLP084 T02510186 10270 20251 57014

More Conditions Fewer Conditions

10-Day Weather Forecast

Almanac

Astronomy

Sep. 02, 2014 Rise Set
Actual Time 6:26 AM PDT 7:16 PM PDT
Civil Twilight 6:01 AM PDT 7:41 PM PDT
Nautical Twilight 5:31 AM PDT 8:11 PM PDT
Astronomical Twilight 5:00 AM PDT 8:42 PM PDT
Moon 1:55 PM PDT (9/2) No Moon Set
Length of Visible Light 13h 40m
Length of Day
12h 49m
Tomorrow will be 2m 1s shorter.
First Quarter, 56% of the Moon is Illuminated
Today
First Quarter
Sep 8
Full
Sep 15
Last Quarter
Sep 24
New
Oct 1
First Quarter

Today's Extremes

State Highs State Lows

Community

WunderPhotos

Upload Photos

1,749,812 photos uploaded!

Nearby

Air Quality

  Air Quality AQ Index Pollutant
Yesterday Good
PM10
Yesterday Good
OZONE
Current Moderate
PM2.5
Current Good
OZONE
Wednesday Good
PM10
Wednesday Good
OZONE
Wednesday Good
CO
Wednesday Good
NO2

Snow Depth

Station Depth Elevation
Leavitt Meadows 0 in 7200 ft
Summit Meadow 0 in 9122 ft
Adin Mountain 0 in 6200 ft

Earthquake Activity

City Distance Mag. Time & Date
No recent earthquake activity has been reported nearby.
Minimum magnitude displayed is 2.5.

Coastal Water Temperatures

Place Temperature
Santa Monica Pier 73.9 °F
Los Angeles, CA 72.0 °F
La Jolla, CA 73.0 °F

Nearby Weather Stations